createdAt,value
2018-08-10T00:00:12.404Z,78.90
2018-08-10T00:02:40.518Z,78.30
2018-08-10T00:05:09.484Z,78.00
2018-08-10T00:07:37.954Z,77.90
2018-08-10T00:10:07.858Z,77.60
2018-08-10T00:12:35.948Z,78.20
2018-08-10T00:15:04.991Z,79.20
2018-08-10T00:17:33.098Z,79.50
2018-08-10T00:20:01.214Z,79.90
2018-08-10T00:22:29.286Z,80.50
2018-08-10T00:24:57.379Z,80.10
2018-08-10T00:27:25.516Z,80.50
2018-08-10T00:29:53.605Z,80.50
2018-08-10T00:32:22.066Z,80.60
2018-08-10T00:34:50.199Z,81.10
2018-08-10T00:37:18.248Z,81.50
2018-08-10T00:39:46.351Z,81.80
2018-08-10T00:42:14.456Z,82.10
2018-08-10T00:44:42.531Z,82.40
2018-08-10T00:47:10.626Z,82.40
2018-08-10T00:49:38.718Z,82.20
2018-08-10T00:52:07.099Z,81.80
2018-08-10T00:54:35.207Z,82.10
2018-08-10T00:57:03.347Z,82.30
2018-08-10T00:59:31.488Z,81.70
2018-08-10T01:01:59.600Z,81.50
2018-08-10T01:04:27.692Z,81.50
2018-08-10T01:06:55.790Z,81.20
2018-08-10T01:09:23.886Z,80.90
2018-08-10T01:11:52.023Z,80.90
2018-08-10T01:14:20.175Z,80.20
2018-08-10T01:16:48.332Z,80.00
2018-08-10T01:19:16.439Z,80.30
2018-08-10T01:21:44.550Z,81.30
2018-08-10T01:24:12.677Z,81.40
2018-08-10T01:26:40.818Z,80.70
2018-08-10T01:29:08.933Z,79.80
2018-08-10T01:31:37.193Z,80.00
2018-08-10T01:34:05.385Z,78.70
2018-08-10T01:36:33.496Z,78.30
2018-08-10T01:39:01.661Z,78.20
2018-08-10T01:41:29.765Z,78.60
2018-08-10T01:43:57.895Z,78.10
2018-08-10T01:46:25.978Z,79.10
2018-08-10T01:48:54.170Z,77.90
2018-08-10T01:51:22.277Z,77.60
2018-08-10T01:53:50.370Z,77.00
2018-08-10T01:56:18.428Z,77.40
2018-08-10T01:58:46.498Z,77.00
2018-08-10T02:01:14.574Z,76.60
2018-08-10T02:03:42.645Z,75.60
2018-08-10T02:06:10.722Z,75.30
2018-08-10T02:08:38.818Z,76.00
2018-08-10T02:11:07.351Z,75.50
2018-08-10T02:13:35.551Z,75.10
2018-08-10T02:16:03.642Z,74.60
2018-08-10T02:18:31.713Z,74.00
2018-08-10T02:20:59.778Z,74.50
2018-08-10T02:23:27.843Z,75.30
2018-08-10T02:25:55.960Z,75.10
2018-08-10T02:28:24.076Z,74.70
2018-08-10T02:30:52.171Z,75.20
2018-08-10T02:33:20.265Z,74.90
2018-08-10T02:35:48.393Z,74.60
2018-08-10T02:38:16.497Z,74.80
2018-08-10T02:40:44.641Z,75.20
2018-08-10T02:43:12.714Z,75.40
2018-08-10T02:45:40.806Z,76.00
2018-08-10T02:48:08.906Z,75.10
2018-08-10T02:50:37.016Z,75.40
2018-08-10T02:53:31.364Z,75.60
2018-08-10T02:55:59.486Z,75.30
2018-08-10T02:58:27.626Z,74.90
2018-08-10T03:00:55.699Z,74.70
2018-08-10T03:03:23.774Z,74.30
2018-08-10T03:05:51.836Z,74.20
2018-08-10T03:08:19.937Z,72.90
2018-08-10T03:10:48.041Z,72.80
2018-08-10T03:13:16.150Z,72.50
2018-08-10T03:15:44.263Z,71.90
2018-08-10T03:18:12.381Z,71.40
2018-08-10T03:20:40.502Z,70.80
2018-08-10T03:23:08.611Z,71.00
2018-08-10T03:25:36.745Z,71.00
2018-08-10T03:28:04.921Z,70.30
2018-08-10T03:30:33.011Z,70.00
2018-08-10T03:33:01.103Z,69.70
2018-08-10T03:35:29.239Z,69.30
2018-08-10T03:37:57.318Z,69.10
2018-08-10T03:40:25.515Z,68.30
2018-08-10T03:42:53.613Z,68.30
2018-08-10T03:45:21.796Z,68.40
2018-08-10T03:47:49.976Z,67.30
2018-08-10T03:50:18.138Z,67.40
2018-08-10T03:52:46.345Z,66.80
2018-08-10T03:55:14.449Z,66.50
2018-08-10T03:57:42.589Z,66.30
2018-08-10T04:00:12.727Z,66.10
2018-08-10T04:02:40.868Z,65.70
2018-08-10T04:05:10.106Z,65.30
2018-08-10T04:07:38.444Z,66.10
2018-08-10T04:10:07.380Z,65.90
2018-08-10T04:12:35.815Z,66.50
2018-08-10T04:15:04.804Z,66.80
2018-08-10T04:17:32.876Z,67.20
2018-08-10T04:20:00.991Z,67.70
2018-08-10T04:22:29.141Z,68.10
2018-08-10T04:24:57.448Z,68.40
2018-08-10T04:27:25.587Z,68.60
2018-08-10T04:29:53.684Z,68.90
2018-08-10T04:32:21.786Z,68.80
2018-08-10T04:34:49.906Z,67.90
2018-08-10T04:37:18.582Z,69.10
2018-08-10T04:39:46.706Z,69.40
2018-08-10T04:42:14.791Z,69.10
2018-08-10T04:44:42.913Z,69.20
2018-08-10T04:47:11.008Z,69.30
2018-08-10T04:49:39.120Z,68.60
2018-08-10T04:52:07.289Z,69.00
2018-08-10T04:54:35.403Z,68.20
2018-08-10T04:57:03.535Z,68.70
2018-08-10T04:59:31.605Z,68.80
2018-08-10T05:01:59.737Z,68.20
2018-08-10T05:04:27.831Z,68.30
2018-08-10T05:06:55.926Z,69.00
2018-08-10T05:09:24.077Z,68.90
2018-08-10T05:11:52.168Z,68.20
2018-08-10T05:14:20.293Z,68.40
2018-08-10T05:16:48.408Z,68.90
2018-08-10T05:19:16.522Z,68.40
2018-08-10T05:21:44.651Z,68.40
2018-08-10T05:24:12.731Z,68.40
2018-08-10T05:26:40.899Z,68.80
2018-08-10T05:29:09.078Z,68.50
2018-08-10T05:31:37.238Z,68.30
2018-08-10T05:34:05.383Z,67.80
2018-08-10T05:36:33.491Z,66.50
2018-08-10T05:39:01.627Z,66.00
2018-08-10T05:41:29.697Z,66.00
2018-08-10T05:43:57.842Z,64.60
2018-08-10T05:46:25.951Z,64.40
2018-08-10T05:48:54.317Z,64.00
2018-08-10T05:51:22.389Z,63.30
2018-08-10T05:53:50.495Z,62.50
2018-08-10T05:56:18.574Z,61.40
2018-08-10T05:58:46.685Z,61.30
2018-08-10T06:01:14.783Z,60.60
2018-08-10T06:03:42.998Z,60.40
2018-08-10T06:06:11.021Z,60.90
2018-08-10T06:08:39.125Z,60.90
2018-08-10T06:11:07.192Z,60.90
2018-08-10T06:13:35.295Z,61.00
2018-08-10T06:16:03.387Z,60.20
2018-08-10T06:18:31.608Z,59.50
2018-08-10T06:20:59.652Z,59.60
2018-08-10T06:23:27.755Z,59.40
2018-08-10T06:25:55.866Z,58.90
2018-08-10T06:28:23.965Z,58.80
2018-08-10T06:30:52.126Z,59.30
2018-08-10T06:33:20.248Z,58.80
2018-08-10T06:35:48.314Z,58.90
2018-08-10T06:38:16.517Z,58.50
2018-08-10T06:40:44.646Z,58.40
2018-08-10T06:43:12.930Z,58.60
2018-08-10T06:45:41.035Z,58.80
2018-08-10T06:48:09.154Z,58.80
2018-08-10T06:50:37.230Z,59.00
2018-08-10T06:53:05.546Z,58.60
2018-08-10T06:55:33.758Z,59.00
2018-08-10T06:58:01.830Z,59.30
2018-08-10T07:00:29.983Z,59.30
2018-08-10T07:02:58.047Z,59.10
2018-08-10T07:05:26.159Z,58.90
2018-08-10T07:07:54.302Z,59.00
2018-08-10T07:10:22.353Z,59.00
2018-08-10T07:12:50.489Z,59.50
2018-08-10T07:15:18.618Z,59.70
2018-08-10T07:17:46.699Z,59.50
2018-08-10T07:20:14.790Z,60.00
2018-08-10T07:22:42.916Z,60.00
2018-08-10T07:25:11.017Z,60.80
2018-08-10T07:27:39.142Z,60.90
2018-08-10T07:30:07.234Z,60.60
2018-08-10T07:32:35.385Z,60.90
2018-08-10T07:35:03.564Z,61.30
2018-08-10T07:37:31.705Z,60.90
2018-08-10T07:39:59.915Z,60.90
2018-08-10T07:42:28.191Z,60.90
2018-08-10T07:44:56.332Z,60.10
2018-08-10T07:47:24.441Z,59.60
2018-08-10T07:49:52.574Z,59.80
2018-08-10T07:52:20.795Z,60.30
2018-08-10T07:54:48.818Z,59.90
2018-08-10T07:57:16.916Z,59.90
2018-08-10T08:02:19.758Z,59.60
2018-08-10T08:04:47.891Z,59.60
2018-08-10T08:07:16.072Z,59.30
2018-08-10T08:09:44.233Z,59.70
2018-08-10T08:12:12.326Z,59.50
2018-08-10T08:14:40.448Z,59.40
2018-08-10T08:17:08.760Z,59.30
2018-08-10T08:19:37.016Z,58.10
2018-08-10T08:22:09.176Z,57.40
2018-08-10T08:24:37.833Z,57.30
2018-08-10T08:27:05.990Z,57.20
2018-08-10T08:29:34.359Z,56.70
2018-08-10T08:32:02.798Z,56.60
2018-08-10T08:34:30.899Z,55.90
2018-08-10T08:36:59.498Z,55.50
2018-08-10T08:39:38.932Z,55.10
2018-08-10T08:42:07.063Z,54.50
2018-08-10T08:44:50.578Z,53.80
2018-08-10T08:47:18.691Z,53.20
2018-08-10T08:49:46.843Z,52.30
2018-08-10T08:52:14.974Z,52.20
2018-08-10T08:55:07.912Z,52.70
2018-08-10T08:57:36.849Z,53.40
2018-08-10T09:00:11.116Z,53.70
2018-08-10T09:02:39.250Z,53.70
2018-08-10T09:05:08.741Z,53.60
2018-08-10T09:07:37.233Z,53.50
2018-08-10T09:10:10.120Z,53.60
2018-08-10T09:12:38.154Z,52.70
2018-08-10T09:15:08.279Z,53.30
2018-08-10T09:17:36.509Z,53.70
2018-08-10T09:20:06.182Z,54.20
2018-08-10T09:22:34.306Z,53.60
2018-08-10T09:25:02.400Z,53.60
2018-08-10T09:27:30.532Z,53.50
2018-08-10T09:29:58.604Z,53.40
2018-08-10T09:32:26.773Z,53.30
2018-08-10T09:34:54.890Z,53.80
2018-08-10T09:37:23.019Z,53.90
2018-08-10T09:39:51.135Z,53.80
2018-08-10T09:42:19.261Z,53.00
2018-08-10T09:44:47.349Z,52.00
2018-08-10T09:47:15.438Z,51.50
2018-08-10T09:49:45.981Z,51.40
2018-08-10T09:52:14.069Z,51.70
2018-08-10T09:55:23.014Z,51.00
2018-08-10T09:57:52.453Z,50.60
2018-08-10T10:01:25.679Z,50.50
2018-08-10T10:03:53.902Z,50.00
2018-08-10T10:06:22.006Z,49.60
2018-08-10T10:08:50.101Z,49.60
2018-08-10T10:11:18.217Z,49.60
2018-08-10T10:13:46.382Z,48.80
2018-08-10T10:16:14.466Z,48.30
2018-08-10T10:18:42.617Z,48.00
2018-08-10T10:21:10.759Z,47.90
2018-08-10T10:23:38.867Z,47.20
2018-08-10T10:26:06.959Z,47.30
2018-08-10T10:28:35.065Z,47.20
2018-08-10T10:31:03.196Z,47.50
2018-08-10T10:33:31.337Z,47.40
2018-08-10T10:35:59.402Z,47.60
2018-08-10T10:38:27.542Z,47.30
2018-08-10T10:40:55.664Z,47.70
2018-08-10T10:43:23.809Z,47.40
2018-08-10T10:45:51.940Z,47.00
2018-08-10T10:48:20.046Z,47.40
2018-08-10T10:50:48.227Z,47.70
2018-08-10T10:53:16.968Z,48.00
2018-08-10T10:55:45.051Z,48.00
2018-08-10T10:58:18.064Z,46.90
2018-08-10T11:00:46.166Z,46.80
2018-08-10T11:03:14.287Z,45.30
2018-08-10T11:05:42.346Z,46.10
2018-08-10T11:08:10.467Z,46.40
2018-08-10T11:10:38.539Z,46.10
2018-08-10T11:13:06.660Z,45.90
2018-08-10T11:15:34.769Z,46.50
2018-08-10T11:18:02.929Z,47.00
2018-08-10T11:20:31.051Z,47.00
2018-08-10T11:22:59.146Z,46.50
2018-08-10T11:25:27.392Z,45.50
2018-08-10T11:27:55.358Z,44.80
2018-08-10T11:30:23.588Z,43.70
2018-08-10T11:32:51.682Z,43.50
2018-08-10T11:35:20.156Z,44.70
2018-08-10T11:37:48.248Z,44.80
2018-08-10T11:40:16.356Z,44.10
2018-08-10T11:42:44.679Z,44.10
2018-08-10T11:45:14.250Z,42.90
2018-08-10T11:47:42.468Z,42.00
2018-08-10T11:50:10.693Z,42.50
2018-08-10T11:52:38.954Z,41.10
2018-08-10T11:55:08.861Z,40.60
2018-08-10T11:57:37.019Z,40.40
2018-08-10T12:00:06.581Z,40.80
2018-08-10T12:02:34.635Z,41.50
2018-08-10T12:05:02.784Z,41.00
2018-08-10T12:07:30.871Z,41.90
2018-08-10T12:09:59.036Z,41.30
2018-08-10T12:12:27.171Z,42.20
2018-08-10T12:14:55.221Z,41.90
2018-08-10T12:17:23.303Z,41.00
2018-08-10T12:19:51.466Z,41.30
2018-08-10T12:22:19.576Z,43.00
2018-08-10T12:24:47.747Z,43.70
2018-08-10T12:27:15.866Z,43.70
2018-08-10T12:29:43.995Z,44.30
2018-08-10T12:32:12.106Z,44.00
2018-08-10T12:34:40.245Z,43.60
2018-08-10T12:37:08.466Z,42.60
2018-08-10T12:39:36.555Z,41.20
2018-08-10T12:42:04.635Z,41.10
2018-08-10T12:44:32.760Z,39.20
2018-08-10T12:47:00.830Z,38.30
2018-08-10T12:49:28.951Z,38.10
2018-08-10T12:51:57.044Z,38.20
2018-08-10T12:54:25.148Z,38.50
2018-08-10T12:56:53.313Z,38.60
2018-08-10T12:59:21.451Z,38.70
2018-08-10T13:01:49.614Z,38.20
2018-08-10T13:04:17.786Z,37.90
2018-08-10T13:06:45.865Z,37.60
2018-08-10T13:09:14.287Z,37.50
2018-08-10T13:11:42.474Z,37.30
2018-08-10T13:14:10.747Z,37.90
2018-08-10T13:16:38.890Z,36.80
2018-08-10T13:19:06.947Z,37.70
2018-08-10T13:21:35.060Z,37.30
2018-08-10T13:24:03.158Z,36.50
2018-08-10T13:26:31.341Z,35.40
2018-08-10T13:28:59.470Z,36.20
2018-08-10T13:31:27.562Z,36.00
2018-08-10T13:33:55.680Z,36.80
2018-08-10T13:36:23.835Z,37.40
2018-08-10T13:38:51.922Z,37.60
2018-08-10T13:41:20.085Z,37.20
2018-08-10T13:43:48.271Z,35.90
2018-08-10T13:46:16.420Z,36.20
2018-08-10T13:48:44.532Z,35.90
2018-08-10T13:51:12.642Z,35.80
2018-08-10T13:53:40.757Z,35.70
2018-08-10T13:56:08.955Z,36.30
2018-08-10T13:58:37.067Z,37.00
2018-08-10T14:01:05.166Z,37.00
2018-08-10T14:03:33.267Z,37.00
2018-08-10T14:06:01.421Z,36.70
2018-08-10T14:08:29.540Z,36.10
2018-08-10T14:10:57.710Z,34.40
2018-08-10T14:13:25.857Z,35.20
2018-08-10T14:15:54.235Z,35.70
2018-08-10T14:18:22.315Z,36.10
2018-08-10T14:20:50.505Z,36.90
2018-08-10T14:23:18.624Z,36.90
2018-08-10T14:25:46.725Z,37.00
2018-08-10T14:28:14.903Z,38.60
2018-08-10T14:30:43.281Z,37.60
2018-08-10T14:33:11.376Z,37.30
2018-08-10T14:35:39.556Z,37.00
2018-08-10T14:38:07.679Z,36.10
2018-08-10T14:40:35.803Z,36.50
2018-08-10T14:43:03.913Z,36.30
2018-08-10T14:45:32.083Z,35.60
2018-08-10T14:48:00.279Z,36.10
2018-08-10T14:50:28.491Z,36.10
2018-08-10T14:52:56.657Z,35.80
2018-08-10T14:55:24.750Z,35.80
2018-08-10T14:57:53.360Z,35.80
2018-08-10T15:00:21.757Z,35.70
2018-08-10T15:02:50.048Z,36.30
2018-08-10T15:05:18.351Z,36.20
2018-08-10T15:07:46.469Z,36.60
2018-08-10T15:10:15.608Z,37.00
2018-08-10T15:12:44.261Z,36.60
2018-08-10T15:15:15.102Z,36.90
2018-08-10T15:17:43.554Z,36.90
2018-08-10T15:20:15.356Z,37.10
2018-08-10T15:22:43.661Z,37.00
2018-08-10T15:25:11.908Z,36.20
2018-08-10T15:27:41.015Z,36.60
2018-08-10T15:30:11.987Z,36.00
2018-08-10T15:32:40.309Z,35.70
2018-08-10T15:35:08.629Z,35.50
2018-08-10T15:37:37.110Z,35.90
2018-08-10T15:40:06.390Z,34.40
2018-08-10T15:42:34.540Z,35.00
2018-08-10T15:45:02.635Z,34.60
2018-08-10T15:47:30.733Z,33.60
2018-08-10T15:49:58.798Z,34.50
2018-08-10T15:52:27.046Z,34.90
2018-08-10T15:54:55.132Z,35.10
2018-08-10T15:57:23.311Z,35.90
2018-08-10T15:59:51.397Z,36.00
2018-08-10T16:02:19.521Z,35.00
2018-08-10T16:04:47.618Z,35.20
2018-08-10T16:07:15.793Z,34.90
2018-08-10T16:09:43.874Z,34.60
2018-08-10T16:12:11.999Z,34.60
2018-08-10T16:14:40.133Z,34.70
2018-08-10T16:17:08.285Z,35.40
2018-08-10T16:19:36.918Z,35.50
2018-08-10T16:22:05.332Z,36.50
2018-08-10T16:24:33.478Z,36.80
2018-08-10T16:27:01.601Z,35.40
2018-08-10T16:29:29.733Z,35.50
2018-08-10T16:31:57.852Z,34.60
2018-08-10T16:34:26.327Z,34.30
2018-08-10T16:36:54.410Z,33.80
2018-08-10T16:39:22.536Z,34.50
2018-08-10T16:41:50.637Z,34.20
2018-08-10T16:44:18.866Z,34.00
2018-08-10T16:46:47.134Z,32.90
2018-08-10T16:49:17.004Z,32.90
2018-08-10T16:51:45.088Z,32.50
2018-08-10T16:54:13.246Z,32.60
2018-08-10T16:56:41.398Z,33.10
2018-08-10T16:59:09.806Z,33.00
2018-08-10T17:01:37.897Z,33.70
2018-08-10T17:04:06.007Z,34.00
2018-08-10T17:06:34.117Z,33.80
2018-08-10T17:09:02.280Z,34.60
2018-08-10T17:11:30.418Z,34.30
2018-08-10T17:13:58.526Z,33.60
2018-08-10T17:16:26.674Z,34.00
2018-08-10T17:18:54.837Z,34.90
2018-08-10T17:21:29.598Z,35.70
2018-08-10T17:23:57.746Z,35.30
2018-08-10T17:26:25.847Z,35.30
2018-08-10T17:28:54.011Z,35.30
2018-08-10T17:31:22.111Z,35.00
2018-08-10T17:33:50.281Z,34.80
2018-08-10T17:36:18.455Z,36.00
2018-08-10T17:38:46.578Z,35.00
2018-08-10T17:41:14.761Z,35.50
2018-08-10T17:43:42.867Z,35.30
2018-08-10T17:46:10.995Z,35.40
2018-08-10T17:48:39.121Z,35.10
2018-08-10T17:51:07.276Z,36.30
2018-08-10T17:53:35.385Z,35.60
2018-08-10T17:56:03.555Z,35.30
2018-08-10T17:58:31.694Z,35.60
2018-08-10T18:00:59.785Z,35.50
2018-08-10T18:03:27.894Z,36.20
2018-08-10T18:05:56.006Z,37.00
2018-08-10T18:08:24.115Z,36.50
2018-08-10T18:10:52.206Z,36.60
2018-08-10T18:13:20.329Z,37.70
2018-08-10T18:15:48.499Z,38.10
2018-08-10T18:18:16.667Z,37.30
2018-08-10T18:20:44.737Z,36.70
2018-08-10T18:23:12.830Z,36.90
2018-08-10T18:25:40.964Z,38.10
2018-08-10T18:28:09.060Z,38.40
2018-08-10T18:30:37.253Z,38.30
2018-08-10T18:33:06.145Z,38.80
2018-08-10T18:35:34.230Z,38.80
2018-08-10T18:38:02.301Z,38.70
2018-08-10T18:40:30.431Z,38.00
2018-08-10T18:42:58.561Z,38.80
2018-08-10T18:45:26.654Z,39.30
2018-08-10T18:47:54.758Z,39.60
2018-08-10T18:50:22.922Z,39.30
2018-08-10T18:52:50.965Z,39.00
2018-08-10T18:55:20.826Z,38.10
2018-08-10T18:57:49.299Z,38.20
2018-08-10T19:00:19.148Z,38.40
2018-08-10T19:02:47.455Z,38.90
2018-08-10T19:05:16.509Z,39.50
2018-08-10T19:07:45.322Z,40.10
2018-08-10T19:10:18.613Z,41.20
2018-08-10T19:12:46.689Z,42.60
2018-08-10T19:15:14.803Z,42.30
2018-08-10T19:17:43.097Z,42.80
2018-08-10T19:20:11.559Z,43.40
2018-08-10T19:22:39.617Z,42.60
2018-08-10T19:25:09.400Z,43.00
2018-08-10T19:27:37.525Z,43.00
2018-08-10T19:30:08.418Z,43.30
2018-08-10T19:32:36.492Z,44.30
2018-08-10T19:35:05.317Z,43.80
2018-08-10T19:37:33.499Z,43.90
2018-08-10T19:40:01.591Z,43.70
2018-08-10T19:42:29.765Z,44.40
2018-08-10T19:44:57.949Z,44.60
2018-08-10T19:47:26.133Z,44.70
2018-08-10T19:49:54.244Z,44.90
2018-08-10T19:52:22.338Z,45.10
2018-08-10T19:54:50.474Z,46.10
2018-08-10T19:57:18.581Z,45.50
2018-08-10T19:59:46.710Z,45.50
2018-08-10T20:02:14.814Z,46.00
2018-08-10T20:04:42.930Z,46.40
2018-08-10T20:07:11.091Z,46.50
2018-08-10T20:09:39.265Z,46.50
2018-08-10T20:12:07.388Z,46.70
2018-08-10T20:14:35.489Z,47.00
2018-08-10T20:17:03.614Z,47.20
2018-08-10T20:19:31.725Z,47.00
2018-08-10T20:21:59.781Z,47.70
2018-08-10T20:24:27.870Z,48.40
2018-08-10T20:26:55.947Z,48.50
2018-08-10T20:29:24.099Z,48.60
2018-08-10T20:31:52.218Z,48.70
2018-08-10T20:34:20.320Z,48.80
2018-08-10T20:36:48.435Z,48.00
2018-08-10T20:39:16.617Z,48.10
2018-08-10T20:41:44.741Z,48.00
2018-08-10T20:44:12.944Z,48.00
2018-08-10T20:46:41.065Z,47.80
2018-08-10T20:49:09.242Z,47.90
2018-08-10T20:51:37.373Z,48.40
2018-08-10T20:54:05.452Z,48.00
2018-08-10T20:56:33.582Z,48.20
2018-08-10T20:59:01.715Z,48.60
2018-08-10T21:01:29.869Z,48.90
2018-08-10T21:03:58.013Z,49.00
2018-08-10T21:06:26.986Z,49.30
2018-08-10T21:08:56.746Z,49.80
2018-08-10T21:11:25.338Z,49.70
2018-08-10T21:13:53.454Z,49.50
2018-08-10T21:16:21.586Z,49.40
2018-08-10T21:18:49.699Z,49.70
2018-08-10T21:21:17.864Z,49.90
2018-08-10T21:23:46.002Z,50.00
2018-08-10T21:26:14.097Z,50.20
2018-08-10T21:28:42.217Z,50.50
2018-08-10T21:31:10.480Z,50.40
2018-08-10T21:33:38.581Z,50.60
2018-08-10T21:36:06.971Z,50.60
2018-08-10T21:38:35.165Z,50.90
2018-08-10T21:41:03.353Z,51.10
2018-08-10T21:43:31.424Z,51.50
2018-08-10T21:45:59.535Z,51.50
2018-08-10T21:48:27.654Z,51.40
2018-08-10T21:50:55.782Z,51.40
2018-08-10T21:53:23.894Z,51.60
2018-08-10T21:55:51.959Z,52.20
2018-08-10T21:58:20.047Z,51.80
2018-08-10T22:00:53.669Z,51.90
2018-08-10T22:03:22.677Z,52.00
2018-08-10T22:05:51.095Z,52.20
2018-08-10T22:08:20.281Z,52.20
2018-08-10T22:10:49.394Z,52.30
2018-08-10T22:13:23.360Z,52.40
2018-08-10T22:15:57.888Z,52.50
2018-08-10T22:18:32.180Z,52.70
2018-08-10T22:21:00.924Z,52.60
2018-08-10T22:23:30.035Z,51.90
2018-08-10T22:25:59.280Z,51.70
2018-08-10T22:28:28.199Z,51.80
2018-08-10T22:30:57.543Z,51.60
2018-08-10T22:33:25.878Z,51.90
2018-08-10T22:35:54.526Z,51.80
2018-08-10T22:38:23.159Z,52.00
2018-08-10T22:40:51.712Z,51.90
2018-08-10T22:43:20.026Z,51.60
2018-08-10T22:45:48.668Z,51.80
2018-08-10T22:48:17.019Z,51.80
2018-08-10T22:50:45.838Z,52.10
2018-08-10T22:53:14.782Z,52.10
2018-08-10T22:55:43.275Z,52.00
2018-08-10T22:58:11.821Z,52.00
2018-08-10T23:00:40.948Z,52.10
2018-08-10T23:03:09.588Z,52.00
2018-08-10T23:05:40.064Z,51.90
2018-08-10T23:08:08.715Z,51.90
2018-08-10T23:10:39.272Z,51.70
2018-08-10T23:13:07.993Z,51.50
2018-08-10T23:15:36.989Z,51.40
2018-08-10T23:18:05.434Z,51.30
2018-08-10T23:20:33.669Z,51.20
2018-08-10T23:23:01.812Z,51.30
2018-08-10T23:25:29.963Z,51.30
2018-08-10T23:27:58.127Z,51.80
2018-08-10T23:30:26.253Z,51.20
2018-08-10T23:32:54.413Z,51.10
2018-08-10T23:35:23.115Z,51.00
2018-08-10T23:37:51.900Z,51.00
2018-08-10T23:40:20.886Z,51.20
2018-08-10T23:42:49.541Z,50.90
2018-08-10T23:45:18.424Z,51.00
2018-08-10T23:47:47.159Z,50.90
2018-08-10T23:50:16.745Z,51.00
2018-08-10T23:52:46.121Z,50.70
2018-08-10T23:55:16.851Z,50.50
2018-08-10T23:57:45.501Z,50.60
